sensor_id;sensor_type;location;lat;lon;timestamp;P1;durP1;ratioP1;P2;durP2;ratioP2
19251;SDS011;9760;50.944;5.304;2023-07-29T00:01:33;3.07;;;1.70;;
19251;SDS011;9760;50.944;5.304;2023-07-29T00:03:59;4.50;;;1.70;;
19251;SDS011;9760;50.944;5.304;2023-07-29T00:06:25;2.83;;;1.60;;
19251;SDS011;9760;50.944;5.304;2023-07-29T00:08:50;4.80;;;1.27;;
19251;SDS011;9760;50.944;5.304;2023-07-29T00:11:16;3.93;;;1.40;;
19251;SDS011;9760;50.944;5.304;2023-07-29T00:13:41;2.47;;;1.77;;
19251;SDS011;9760;50.944;5.304;2023-07-29T00:16:07;3.17;;;1.60;;
19251;SDS011;9760;50.944;5.304;2023-07-29T00:18:33;1.97;;;1.40;;
19251;SDS011;9760;50.944;5.304;2023-07-29T00:20:58;4.10;;;1.80;;
19251;SDS011;9760;50.944;5.304;2023-07-29T00:23:24;3.07;;;1.77;;
19251;SDS011;9760;50.944;5.304;2023-07-29T00:25:49;3.17;;;1.90;;
19251;SDS011;9760;50.944;5.304;2023-07-29T00:28:15;2.30;;;1.80;;
19251;SDS011;9760;50.944;5.304;2023-07-29T00:30:41;1.97;;;1.77;;
19251;SDS011;9760;50.944;5.304;2023-07-29T00:33:06;5.47;;;2.10;;
19251;SDS011;9760;50.944;5.304;2023-07-29T00:35:32;6.13;;;1.90;;
19251;SDS011;9760;50.944;5.304;2023-07-29T00:37:59;2.13;;;1.87;;
19251;SDS011;9760;50.944;5.304;2023-07-29T00:40:24;3.73;;;1.80;;
19251;SDS011;9760;50.944;5.304;2023-07-29T00:42:53;9.37;;;2.10;;
19251;SDS011;9760;50.944;5.304;2023-07-29T00:45:19;4.57;;;1.87;;
19251;SDS011;9760;50.944;5.304;2023-07-29T00:47:45;3.30;;;2.10;;
19251;SDS011;9760;50.944;5.304;2023-07-29T00:50:12;3.17;;;1.90;;
19251;SDS011;9760;50.944;5.304;2023-07-29T00:52:39;2.33;;;1.77;;
19251;SDS011;9760;50.944;5.304;2023-07-29T00:55:05;2.50;;;2.07;;
19251;SDS011;9760;50.944;5.304;2023-07-29T00:57:32;6.10;;;1.83;;
19251;SDS011;9760;50.944;5.304;2023-07-29T00:59:58;4.33;;;2.17;;
19251;SDS011;9760;50.944;5.304;2023-07-29T01:02:25;8.87;;;2.00;;
19251;SDS011;9760;50.944;5.304;2023-07-29T01:04:52;3.30;;;1.80;;
19251;SDS011;9760;50.944;5.304;2023-07-29T01:07:21;5.70;;;2.00;;
19251;SDS011;9760;50.944;5.304;2023-07-29T01:18:24;6.07;;;2.50;;
19251;SDS011;9760;50.944;5.304;2023-07-29T01:20:54;4.63;;;1.93;;
19251;SDS011;9760;50.944;5.304;2023-07-29T01:23:24;3.73;;;2.23;;
19251;SDS011;9760;50.944;5.304;2023-07-29T01:25:56;4.63;;;2.37;;
19251;SDS011;9760;50.944;5.304;2023-07-29T01:28:22;3.97;;;2.00;;
19251;SDS011;9760;50.944;5.304;2023-07-29T01:30:49;4.07;;;2.10;;
19251;SDS011;9760;50.944;5.304;2023-07-29T01:33:18;3.33;;;2.40;;
19251;SDS011;9760;50.944;5.304;2023-07-29T01:35:50;5.07;;;2.27;;
19251;SDS011;9760;50.944;5.304;2023-07-29T01:38:20;3.20;;;2.23;;
19251;SDS011;9760;50.944;5.304;2023-07-29T01:41:00;3.37;;;2.37;;
19251;SDS011;9760;50.944;5.304;2023-07-29T01:43:30;4.07;;;2.63;;
19251;SDS011;9760;50.944;5.304;2023-07-29T01:45:57;8.17;;;2.57;;
19251;SDS011;9760;50.944;5.304;2023-07-29T01:48:23;5.57;;;2.57;;
19251;SDS011;9760;50.944;5.304;2023-07-29T01:50:49;5.67;;;2.20;;
19251;SDS011;9760;50.944;5.304;2023-07-29T01:53:15;5.07;;;2.40;;
19251;SDS011;9760;50.944;5.304;2023-07-29T01:55:41;4.23;;;2.20;;
19251;SDS011;9760;50.944;5.304;2023-07-29T01:58:07;7.57;;;2.00;;
19251;SDS011;9760;50.944;5.304;2023-07-29T02:00:32;5.03;;;1.87;;
19251;SDS011;9760;50.944;5.304;2023-07-29T02:02:58;3.17;;;1.93;;
19251;SDS011;9760;50.944;5.304;2023-07-29T02:05:24;2.83;;;1.80;;
19251;SDS011;9760;50.944;5.304;2023-07-29T02:07:49;2.80;;;1.30;;
19251;SDS011;9760;50.944;5.304;2023-07-29T02:10:15;4.10;;;1.60;;
19251;SDS011;9760;50.944;5.304;2023-07-29T02:12:41;4.30;;;1.70;;
19251;SDS011;9760;50.944;5.304;2023-07-29T02:15:06;2.07;;;1.40;;
19251;SDS011;9760;50.944;5.304;2023-07-29T02:17:33;2.93;;;1.70;;
19251;SDS011;9760;50.944;5.304;2023-07-29T02:19:59;1.43;;;1.30;;
19251;SDS011;9760;50.944;5.304;2023-07-29T02:22:25;5.43;;;1.93;;
19251;SDS011;9760;50.944;5.304;2023-07-29T02:24:50;2.87;;;1.53;;
19251;SDS011;9760;50.944;5.304;2023-07-29T02:27:16;4.47;;;1.30;;
19251;SDS011;9760;50.944;5.304;2023-07-29T02:29:41;2.70;;;1.40;;
19251;SDS011;9760;50.944;5.304;2023-07-29T02:32:07;3.00;;;1.50;;
19251;SDS011;9760;50.944;5.304;2023-07-29T02:34:33;5.97;;;1.97;;
19251;SDS011;9760;50.944;5.304;2023-07-29T02:36:59;4.77;;;1.77;;
19251;SDS011;9760;50.944;5.304;2023-07-29T02:39:25;4.93;;;1.47;;
19251;SDS011;9760;50.944;5.304;2023-07-29T02:41:50;3.60;;;1.40;;
19251;SDS011;9760;50.944;5.304;2023-07-29T02:44:16;6.07;;;1.73;;
19251;SDS011;9760;50.944;5.304;2023-07-29T02:46:42;2.23;;;1.87;;
19251;SDS011;9760;50.944;5.304;2023-07-29T02:49:07;5.10;;;1.87;;
19251;SDS011;9760;50.944;5.304;2023-07-29T02:51:33;2.73;;;1.33;;
19251;SDS011;9760;50.944;5.304;2023-07-29T02:53:58;6.23;;;2.00;;
19251;SDS011;9760;50.944;5.304;2023-07-29T02:56:24;5.67;;;1.50;;
19251;SDS011;9760;50.944;5.304;2023-07-29T02:59:04;2.83;;;1.40;;
19251;SDS011;9760;50.944;5.304;2023-07-29T03:01:30;4.23;;;1.67;;
19251;SDS011;9760;50.944;5.304;2023-07-29T03:03:56;3.57;;;1.57;;
19251;SDS011;9760;50.944;5.304;2023-07-29T03:06:21;2.07;;;1.33;;
19251;SDS011;9760;50.944;5.304;2023-07-29T03:08:47;1.77;;;1.37;;
19251;SDS011;9760;50.944;5.304;2023-07-29T03:11:13;4.13;;;1.63;;
19251;SDS011;9760;50.944;5.304;2023-07-29T03:13:40;4.57;;;1.70;;
19251;SDS011;9760;50.944;5.304;2023-07-29T03:16:13;4.43;;;1.63;;
19251;SDS011;9760;50.944;5.304;2023-07-29T03:18:40;6.00;;;1.53;;
19251;SDS011;9760;50.944;5.304;2023-07-29T03:21:07;2.90;;;1.50;;
19251;SDS011;9760;50.944;5.304;2023-07-29T03:23:33;2.90;;;1.40;;
19251;SDS011;9760;50.944;5.304;2023-07-29T03:25:59;4.00;;;1.73;;
19251;SDS011;9760;50.944;5.304;2023-07-29T03:28:27;1.47;;;1.37;;
19251;SDS011;9760;50.944;5.304;2023-07-29T03:30:54;4.00;;;1.60;;
19251;SDS011;9760;50.944;5.304;2023-07-29T03:33:20;3.53;;;1.50;;
19251;SDS011;9760;50.944;5.304;2023-07-29T03:35:48;1.90;;;1.40;;
19251;SDS011;9760;50.944;5.304;2023-07-29T03:38:14;1.93;;;1.10;;
19251;SDS011;9760;50.944;5.304;2023-07-29T03:40:40;4.00;;;1.43;;
19251;SDS011;9760;50.944;5.304;2023-07-29T03:43:06;2.30;;;1.33;;
19251;SDS011;9760;50.944;5.304;2023-07-29T03:45:32;4.00;;;1.40;;
19251;SDS011;9760;50.944;5.304;2023-07-29T03:47:58;7.37;;;1.70;;
19251;SDS011;9760;50.944;5.304;2023-07-29T03:50:23;5.10;;;1.70;;
19251;SDS011;9760;50.944;5.304;2023-07-29T03:52:49;4.40;;;1.70;;
19251;SDS011;9760;50.944;5.304;2023-07-29T03:55:15;3.00;;;1.53;;
19251;SDS011;9760;50.944;5.304;2023-07-29T03:57:41;6.77;;;1.73;;
19251;SDS011;9760;50.944;5.304;2023-07-29T04:00:07;3.10;;;1.50;;
19251;SDS011;9760;50.944;5.304;2023-07-29T04:02:34;8.90;;;1.57;;
19251;SDS011;9760;50.944;5.304;2023-07-29T04:05:02;2.30;;;1.30;;
19251;SDS011;9760;50.944;5.304;2023-07-29T04:07:29;7.83;;;1.40;;
19251;SDS011;9760;50.944;5.304;2023-07-29T04:09:55;5.20;;;1.90;;
19251;SDS011;9760;50.944;5.304;2023-07-29T04:12:21;5.10;;;1.60;;
19251;SDS011;9760;50.944;5.304;2023-07-29T04:14:48;4.53;;;1.60;;
19251;SDS011;9760;50.944;5.304;2023-07-29T04:17:14;2.73;;;1.50;;
19251;SDS011;9760;50.944;5.304;2023-07-29T04:19:39;5.50;;;1.37;;
19251;SDS011;9760;50.944;5.304;2023-07-29T04:22:05;4.63;;;1.73;;
19251;SDS011;9760;50.944;5.304;2023-07-29T04:24:31;6.07;;;2.00;;
19251;SDS011;9760;50.944;5.304;2023-07-29T04:26:57;4.10;;;1.90;;
19251;SDS011;9760;50.944;5.304;2023-07-29T04:29:23;11.93;;;1.87;;
19251;SDS011;9760;50.944;5.304;2023-07-29T04:31:52;5.40;;;1.60;;
19251;SDS011;9760;50.944;5.304;2023-07-29T04:34:18;7.27;;;2.00;;
19251;SDS011;9760;50.944;5.304;2023-07-29T04:36:44;4.70;;;2.00;;
19251;SDS011;9760;50.944;5.304;2023-07-29T04:39:10;6.97;;;2.00;;
19251;SDS011;9760;50.944;5.304;2023-07-29T04:41:36;8.17;;;1.83;;
19251;SDS011;9760;50.944;5.304;2023-07-29T04:44:02;9.87;;;2.03;;
19251;SDS011;9760;50.944;5.304;2023-07-29T04:46:27;5.73;;;2.60;;
19251;SDS011;9760;50.944;5.304;2023-07-29T04:48:53;10.27;;;2.53;;
19251;SDS011;9760;50.944;5.304;2023-07-29T04:51:19;3.93;;;2.27;;
19251;SDS011;9760;50.944;5.304;2023-07-29T04:53:44;3.80;;;2.20;;
19251;SDS011;9760;50.944;5.304;2023-07-29T04:56:10;3.80;;;1.80;;
19251;SDS011;9760;50.944;5.304;2023-07-29T04:58:36;4.07;;;2.30;;
19251;SDS011;9760;50.944;5.304;2023-07-29T05:01:02;4.43;;;2.00;;
19251;SDS011;9760;50.944;5.304;2023-07-29T05:03:28;4.37;;;2.10;;
19251;SDS011;9760;50.944;5.304;2023-07-29T05:05:54;6.03;;;2.43;;
19251;SDS011;9760;50.944;5.304;2023-07-29T05:08:21;3.50;;;2.10;;
19251;SDS011;9760;50.944;5.304;2023-07-29T05:10:53;9.00;;;2.33;;
19251;SDS011;9760;50.944;5.304;2023-07-29T05:13:19;4.87;;;2.43;;
19251;SDS011;9760;50.944;5.304;2023-07-29T05:15:46;2.50;;;1.67;;
19251;SDS011;9760;50.944;5.304;2023-07-29T05:18:13;11.83;;;2.30;;
19251;SDS011;9760;50.944;5.304;2023-07-29T05:20:39;5.03;;;2.10;;
19251;SDS011;9760;50.944;5.304;2023-07-29T05:23:04;3.40;;;1.97;;
19251;SDS011;9760;50.944;5.304;2023-07-29T05:25:30;5.87;;;1.93;;
19251;SDS011;9760;50.944;5.304;2023-07-29T05:27:56;4.67;;;1.80;;
19251;SDS011;9760;50.944;5.304;2023-07-29T05:30:22;3.40;;;2.37;;
19251;SDS011;9760;50.944;5.304;2023-07-29T05:32:48;10.07;;;2.20;;
19251;SDS011;9760;50.944;5.304;2023-07-29T05:35:14;4.27;;;1.83;;
19251;SDS011;9760;50.944;5.304;2023-07-29T05:37:40;7.57;;;1.93;;
19251;SDS011;9760;50.944;5.304;2023-07-29T05:40:06;4.73;;;2.20;;
19251;SDS011;9760;50.944;5.304;2023-07-29T05:42:32;4.10;;;2.13;;
19251;SDS011;9760;50.944;5.304;2023-07-29T05:44:58;6.20;;;1.83;;
19251;SDS011;9760;50.944;5.304;2023-07-29T05:47:24;2.23;;;1.43;;
19251;SDS011;9760;50.944;5.304;2023-07-29T05:49:50;5.30;;;1.70;;
19251;SDS011;9760;50.944;5.304;2023-07-29T05:52:15;3.20;;;2.00;;
19251;SDS011;9760;50.944;5.304;2023-07-29T05:54:41;2.53;;;1.63;;
19251;SDS011;9760;50.944;5.304;2023-07-29T05:57:08;8.43;;;1.90;;
19251;SDS011;9760;50.944;5.304;2023-07-29T05:59:35;5.43;;;1.87;;
19251;SDS011;9760;50.944;5.304;2023-07-29T06:02:00;4.90;;;1.70;;
19251;SDS011;9760;50.944;5.304;2023-07-29T06:04:26;3.83;;;1.97;;
19251;SDS011;9760;50.944;5.304;2023-07-29T06:06:52;4.97;;;2.40;;
19251;SDS011;9760;50.944;5.304;2023-07-29T06:09:17;7.00;;;2.27;;
19251;SDS011;9760;50.944;5.304;2023-07-29T06:11:43;14.87;;;2.60;;
19251;SDS011;9760;50.944;5.304;2023-07-29T06:14:09;9.97;;;2.13;;
19251;SDS011;9760;50.944;5.304;2023-07-29T06:16:34;6.67;;;1.73;;
19251;SDS011;9760;50.944;5.304;2023-07-29T06:19:00;4.17;;;2.10;;
19251;SDS011;9760;50.944;5.304;2023-07-29T06:21:26;9.93;;;3.07;;
19251;SDS011;9760;50.944;5.304;2023-07-29T06:23:51;8.67;;;2.67;;
19251;SDS011;9760;50.944;5.304;2023-07-29T06:26:17;5.40;;;3.20;;
19251;SDS011;9760;50.944;5.304;2023-07-29T06:28:43;3.30;;;2.50;;
19251;SDS011;9760;50.944;5.304;2023-07-29T06:31:09;4.43;;;1.97;;
19251;SDS011;9760;50.944;5.304;2023-07-29T06:33:35;8.73;;;4.43;;
19251;SDS011;9760;50.944;5.304;2023-07-29T06:36:01;11.57;;;2.37;;
19251;SDS011;9760;50.944;5.304;2023-07-29T06:38:26;8.30;;;2.33;;
19251;SDS011;9760;50.944;5.304;2023-07-29T06:40:52;7.53;;;3.00;;
19251;SDS011;9760;50.944;5.304;2023-07-29T06:43:18;5.87;;;1.43;;
19251;SDS011;9760;50.944;5.304;2023-07-29T06:45:43;12.60;;;2.93;;
19251;SDS011;9760;50.944;5.304;2023-07-29T06:48:09;10.27;;;3.40;;
19251;SDS011;9760;50.944;5.304;2023-07-29T06:50:35;5.30;;;2.43;;
19251;SDS011;9760;50.944;5.304;2023-07-29T06:53:00;5.03;;;2.27;;
19251;SDS011;9760;50.944;5.304;2023-07-29T06:55:26;5.97;;;1.70;;
19251;SDS011;9760;50.944;5.304;2023-07-29T06:57:52;5.03;;;1.60;;
19251;SDS011;9760;50.944;5.304;2023-07-29T07:00:17;7.83;;;1.50;;
19251;SDS011;9760;50.944;5.304;2023-07-29T07:02:43;4.47;;;1.53;;
19251;SDS011;9760;50.944;5.304;2023-07-29T07:05:08;6.07;;;1.60;;
19251;SDS011;9760;50.944;5.304;2023-07-29T07:07:34;1.30;;;1.00;;
19251;SDS011;9760;50.944;5.304;2023-07-29T07:10:00;3.17;;;1.13;;
19251;SDS011;9760;50.944;5.304;2023-07-29T07:12:26;2.70;;;1.67;;
19251;SDS011;9760;50.944;5.304;2023-07-29T07:14:51;2.63;;;1.50;;
19251;SDS011;9760;50.944;5.304;2023-07-29T07:17:17;4.20;;;1.60;;
19251;SDS011;9760;50.944;5.304;2023-07-29T07:19:43;2.27;;;1.27;;
19251;SDS011;9760;50.944;5.304;2023-07-29T07:22:09;3.53;;;1.90;;
19251;SDS011;9760;50.944;5.304;2023-07-29T07:24:34;8.20;;;2.87;;
19251;SDS011;9760;50.944;5.304;2023-07-29T07:27:00;1.67;;;1.10;;
19251;SDS011;9760;50.944;5.304;2023-07-29T07:29:25;4.13;;;1.27;;
19251;SDS011;9760;50.944;5.304;2023-07-29T07:31:52;2.70;;;1.47;;
19251;SDS011;9760;50.944;5.304;2023-07-29T07:34:18;4.17;;;1.53;;
19251;SDS011;9760;50.944;5.304;2023-07-29T07:36:45;3.00;;;1.30;;
19251;SDS011;9760;50.944;5.304;2023-07-29T07:39:10;3.50;;;1.60;;
19251;SDS011;9760;50.944;5.304;2023-07-29T07:41:36;2.63;;;1.17;;
19251;SDS011;9760;50.944;5.304;2023-07-29T07:44:01;3.43;;;1.60;;
19251;SDS011;9760;50.944;5.304;2023-07-29T07:46:28;5.53;;;2.57;;
19251;SDS011;9760;50.944;5.304;2023-07-29T07:48:54;5.40;;;1.97;;
19251;SDS011;9760;50.944;5.304;2023-07-29T07:51:19;4.23;;;1.30;;
19251;SDS011;9760;50.944;5.304;2023-07-29T07:53:45;3.83;;;1.20;;
19251;SDS011;9760;50.944;5.304;2023-07-29T07:56:11;7.00;;;1.40;;
19251;SDS011;9760;50.944;5.304;2023-07-29T07:58:37;6.43;;;1.77;;
19251;SDS011;9760;50.944;5.304;2023-07-29T08:01:04;4.87;;;1.17;;
19251;SDS011;9760;50.944;5.304;2023-07-29T08:03:31;4.73;;;1.27;;
19251;SDS011;9760;50.944;5.304;2023-07-29T08:05:57;4.60;;;1.40;;
19251;SDS011;9760;50.944;5.304;2023-07-29T08:08:25;2.23;;;1.07;;
19251;SDS011;9760;50.944;5.304;2023-07-29T08:10:55;2.03;;;1.20;;
19251;SDS011;9760;50.944;5.304;2023-07-29T08:13:24;3.13;;;0.97;;
19251;SDS011;9760;50.944;5.304;2023-07-29T08:15:51;5.30;;;1.63;;
19251;SDS011;9760;50.944;5.304;2023-07-29T08:18:18;2.07;;;1.00;;
19251;SDS011;9760;50.944;5.304;2023-07-29T08:20:56;3.00;;;1.13;;
19251;SDS011;9760;50.944;5.304;2023-07-29T08:23:24;3.00;;;0.90;;
19251;SDS011;9760;50.944;5.304;2023-07-29T08:25:53;5.03;;;1.40;;
19251;SDS011;9760;50.944;5.304;2023-07-29T08:28:21;1.70;;;1.07;;
19251;SDS011;9760;50.944;5.304;2023-07-29T08:30:48;2.40;;;1.40;;
19251;SDS011;9760;50.944;5.304;2023-07-29T08:33:13;1.40;;;1.23;;
19251;SDS011;9760;50.944;5.304;2023-07-29T08:35:39;2.73;;;1.00;;
19251;SDS011;9760;50.944;5.304;2023-07-29T08:38:05;3.43;;;1.53;;
19251;SDS011;9760;50.944;5.304;2023-07-29T08:40:31;3.43;;;1.13;;
19251;SDS011;9760;50.944;5.304;2023-07-29T08:42:58;1.77;;;1.10;;
19251;SDS011;9760;50.944;5.304;2023-07-29T08:45:26;1.37;;;1.27;;
19251;SDS011;9760;50.944;5.304;2023-07-29T08:47:54;6.00;;;1.30;;
19251;SDS011;9760;50.944;5.304;2023-07-29T08:50:24;2.73;;;1.50;;
19251;SDS011;9760;50.944;5.304;2023-07-29T08:52:50;1.90;;;1.13;;
19251;SDS011;9760;50.944;5.304;2023-07-29T08:55:17;4.37;;;1.40;;
19251;SDS011;9760;50.944;5.304;2023-07-29T08:57:44;4.00;;;1.20;;
19251;SDS011;9760;50.944;5.304;2023-07-29T09:00:10;2.33;;;1.17;;
19251;SDS011;9760;50.944;5.304;2023-07-29T09:02:36;6.47;;;1.20;;
19251;SDS011;9760;50.944;5.304;2023-07-29T09:05:02;3.10;;;1.20;;
19251;SDS011;9760;50.944;5.304;2023-07-29T09:07:28;1.60;;;1.23;;
19251;SDS011;9760;50.944;5.304;2023-07-29T09:09:54;1.80;;;1.17;;
19251;SDS011;9760;50.944;5.304;2023-07-29T09:12:20;1.70;;;1.20;;
19251;SDS011;9760;50.944;5.304;2023-07-29T09:14:46;2.53;;;1.13;;
19251;SDS011;9760;50.944;5.304;2023-07-29T09:17:11;1.13;;;1.00;;
19251;SDS011;9760;50.944;5.304;2023-07-29T09:19:39;3.87;;;1.10;;
19251;SDS011;9760;50.944;5.304;2023-07-29T09:22:04;8.03;;;1.30;;
19251;SDS011;9760;50.944;5.304;2023-07-29T09:24:41;5.13;;;1.20;;
19251;SDS011;9760;50.944;5.304;2023-07-29T09:27:07;4.07;;;1.57;;
19251;SDS011;9760;50.944;5.304;2023-07-29T09:29:35;2.33;;;1.03;;
19251;SDS011;9760;50.944;5.304;2023-07-29T09:34:46;2.47;;;1.00;;
19251;SDS011;9760;50.944;5.304;2023-07-29T09:37:22;6.73;;;1.20;;
19251;SDS011;9760;50.944;5.304;2023-07-29T09:39:48;2.73;;;1.20;;
19251;SDS011;9760;50.944;5.304;2023-07-29T09:42:18;5.13;;;1.30;;
19251;SDS011;9760;50.944;5.304;2023-07-29T09:44:46;4.33;;;1.13;;
19251;SDS011;9760;50.944;5.304;2023-07-29T09:47:19;2.10;;;1.00;;
19251;SDS011;9760;50.944;5.304;2023-07-29T09:49:49;1.13;;;0.90;;
19251;SDS011;9760;50.944;5.304;2023-07-29T09:52:19;6.27;;;1.10;;
19251;SDS011;9760;50.944;5.304;2023-07-29T09:54:47;2.60;;;0.93;;
19251;SDS011;9760;50.944;5.304;2023-07-29T09:57:13;1.83;;;1.30;;
19251;SDS011;9760;50.944;5.304;2023-07-29T09:59:41;1.57;;;1.03;;
19251;SDS011;9760;50.944;5.304;2023-07-29T10:02:13;2.87;;;1.17;;
19251;SDS011;9760;50.944;5.304;2023-07-29T10:04:43;2.80;;;1.50;;
19251;SDS011;9760;50.944;5.304;2023-07-29T10:07:11;4.87;;;1.30;;
19251;SDS011;9760;50.944;5.304;2023-07-29T10:09:37;3.83;;;1.23;;
19251;SDS011;9760;50.944;5.304;2023-07-29T10:12:04;3.60;;;1.17;;
19251;SDS011;9760;50.944;5.304;2023-07-29T10:14:31;2.80;;;1.30;;
19251;SDS011;9760;50.944;5.304;2023-07-29T10:16:57;4.20;;;1.27;;
19251;SDS011;9760;50.944;5.304;2023-07-29T10:19:25;2.07;;;1.03;;
19251;SDS011;9760;50.944;5.304;2023-07-29T10:21:51;2.67;;;1.23;;
19251;SDS011;9760;50.944;5.304;2023-07-29T10:24:18;1.93;;;1.10;;
19251;SDS011;9760;50.944;5.304;2023-07-29T10:26:49;4.80;;;1.20;;
19251;SDS011;9760;50.944;5.304;2023-07-29T10:29:17;4.37;;;1.30;;
19251;SDS011;9760;50.944;5.304;2023-07-29T10:31:46;2.47;;;1.20;;
19251;SDS011;9760;50.944;5.304;2023-07-29T10:34:12;1.83;;;0.90;;
19251;SDS011;9760;50.944;5.304;2023-07-29T10:36:39;2.33;;;1.33;;
19251;SDS011;9760;50.944;5.304;2023-07-29T10:39:06;5.63;;;2.50;;
19251;SDS011;9760;50.944;5.304;2023-07-29T10:47:18;5.83;;;1.33;;
19251;SDS011;9760;50.944;5.304;2023-07-29T10:49:52;3.07;;;1.73;;
19251;SDS011;9760;50.944;5.304;2023-07-29T10:55:01;3.37;;;1.60;;
19251;SDS011;9760;50.944;5.304;2023-07-29T10:57:35;1.93;;;1.30;;
19251;SDS011;9760;50.944;5.304;2023-07-29T11:00:07;2.53;;;1.20;;
19251;SDS011;9760;50.944;5.304;2023-07-29T11:02:36;4.73;;;1.60;;
19251;SDS011;9760;50.944;5.304;2023-07-29T11:05:16;4.90;;;2.00;;
19251;SDS011;9760;50.944;5.304;2023-07-29T11:07:45;7.23;;;2.50;;
19251;SDS011;9760;50.944;5.304;2023-07-29T11:10:15;4.80;;;2.70;;
19251;SDS011;9760;50.944;5.304;2023-07-29T11:15:26;9.43;;;2.10;;
19251;SDS011;9760;50.944;5.304;2023-07-29T11:17:57;2.57;;;1.77;;
19251;SDS011;9760;50.944;5.304;2023-07-29T11:20:27;5.17;;;2.20;;
19251;SDS011;9760;50.944;5.304;2023-07-29T11:23:00;6.93;;;2.40;;
19251;SDS011;9760;50.944;5.304;2023-07-29T11:25:27;6.73;;;2.03;;
19251;SDS011;9760;50.944;5.304;2023-07-29T11:27:56;11.57;;;2.30;;
19251;SDS011;9760;50.944;5.304;2023-07-29T11:30:23;5.40;;;2.57;;
19251;SDS011;9760;50.944;5.304;2023-07-29T11:32:51;3.50;;;2.10;;
19251;SDS011;9760;50.944;5.304;2023-07-29T11:35:18;3.73;;;1.90;;
19251;SDS011;9760;50.944;5.304;2023-07-29T11:37:45;5.03;;;2.43;;
19251;SDS011;9760;50.944;5.304;2023-07-29T11:40:13;3.53;;;2.30;;
19251;SDS011;9760;50.944;5.304;2023-07-29T11:42:40;9.33;;;2.60;;
19251;SDS011;9760;50.944;5.304;2023-07-29T11:45:06;6.53;;;2.63;;
19251;SDS011;9760;50.944;5.304;2023-07-29T11:47:36;6.10;;;2.20;;
19251;SDS011;9760;50.944;5.304;2023-07-29T11:50:06;3.43;;;2.40;;
19251;SDS011;9760;50.944;5.304;2023-07-29T11:52:36;6.17;;;2.50;;
19251;SDS011;9760;50.944;5.304;2023-07-29T11:55:04;6.50;;;2.60;;
19251;SDS011;9760;50.944;5.304;2023-07-29T11:57:30;5.17;;;2.47;;
19251;SDS011;9760;50.944;5.304;2023-07-29T11:59:58;4.60;;;2.67;;
19251;SDS011;9760;50.944;5.304;2023-07-29T12:02:24;4.93;;;2.43;;
19251;SDS011;9760;50.944;5.304;2023-07-29T12:04:51;4.90;;;2.40;;
19251;SDS011;9760;50.944;5.304;2023-07-29T12:07:18;5.40;;;2.40;;
19251;SDS011;9760;50.944;5.304;2023-07-29T12:09:44;3.87;;;2.30;;
19251;SDS011;9760;50.944;5.304;2023-07-29T12:12:11;5.37;;;3.03;;
19251;SDS011;9760;50.944;5.304;2023-07-29T12:14:37;7.20;;;3.27;;
19251;SDS011;9760;50.944;5.304;2023-07-29T12:17:03;9.23;;;3.60;;
19251;SDS011;9760;50.944;5.304;2023-07-29T12:19:36;8.80;;;4.07;;
19251;SDS011;9760;50.944;5.304;2023-07-29T12:22:03;8.60;;;4.13;;
19251;SDS011;9760;50.944;5.304;2023-07-29T12:24:32;7.20;;;3.60;;
19251;SDS011;9760;50.944;5.304;2023-07-29T12:27:00;7.23;;;3.03;;
19251;SDS011;9760;50.944;5.304;2023-07-29T12:29:26;4.23;;;2.10;;
19251;SDS011;9760;50.944;5.304;2023-07-29T12:31:59;5.20;;;3.57;;
19251;SDS011;9760;50.944;5.304;2023-07-29T12:34:27;9.23;;;3.57;;
19251;SDS011;9760;50.944;5.304;2023-07-29T12:36:54;11.10;;;3.80;;
19251;SDS011;9760;50.944;5.304;2023-07-29T12:41:46;5.03;;;1.80;;
19251;SDS011;9760;50.944;5.304;2023-07-29T12:44:13;5.00;;;2.47;;
19251;SDS011;9760;50.944;5.304;2023-07-29T12:46:39;4.27;;;2.47;;
19251;SDS011;9760;50.944;5.304;2023-07-29T12:49:04;7.63;;;3.70;;
19251;SDS011;9760;50.944;5.304;2023-07-29T12:51:30;5.17;;;2.90;;
19251;SDS011;9760;50.944;5.304;2023-07-29T12:53:56;6.57;;;4.20;;
19251;SDS011;9760;50.944;5.304;2023-07-29T12:56:21;4.17;;;2.10;;
19251;SDS011;9760;50.944;5.304;2023-07-29T12:58:47;6.83;;;2.90;;
19251;SDS011;9760;50.944;5.304;2023-07-29T13:01:13;4.60;;;2.33;;
19251;SDS011;9760;50.944;5.304;2023-07-29T13:03:43;6.20;;;3.30;;
19251;SDS011;9760;50.944;5.304;2023-07-29T13:06:12;4.13;;;2.37;;
19251;SDS011;9760;50.944;5.304;2023-07-29T13:08:38;8.93;;;4.07;;
19251;SDS011;9760;50.944;5.304;2023-07-29T13:11:04;5.60;;;2.40;;
19251;SDS011;9760;50.944;5.304;2023-07-29T13:13:30;6.53;;;2.80;;
19251;SDS011;9760;50.944;5.304;2023-07-29T13:15:56;4.47;;;2.30;;
19251;SDS011;9760;50.944;5.304;2023-07-29T13:18:22;2.53;;;2.30;;
19251;SDS011;9760;50.944;5.304;2023-07-29T13:20:48;3.23;;;1.90;;
19251;SDS011;9760;50.944;5.304;2023-07-29T13:23:14;2.67;;;2.07;;
19251;SDS011;9760;50.944;5.304;2023-07-29T13:25:40;2.50;;;2.00;;
19251;SDS011;9760;50.944;5.304;2023-07-29T13:28:06;3.63;;;1.97;;
19251;SDS011;9760;50.944;5.304;2023-07-29T13:30:33;4.37;;;2.20;;
19251;SDS011;9760;50.944;5.304;2023-07-29T13:32:59;4.53;;;2.60;;
19251;SDS011;9760;50.944;5.304;2023-07-29T13:35:25;7.67;;;2.30;;
19251;SDS011;9760;50.944;5.304;2023-07-29T13:37:50;5.00;;;2.97;;
19251;SDS011;9760;50.944;5.304;2023-07-29T13:40:16;6.93;;;2.70;;
19251;SDS011;9760;50.944;5.304;2023-07-29T13:42:41;7.63;;;2.43;;
19251;SDS011;9760;50.944;5.304;2023-07-29T13:45:07;6.13;;;2.97;;
19251;SDS011;9760;50.944;5.304;2023-07-29T13:47:33;3.63;;;3.23;;
19251;SDS011;9760;50.944;5.304;2023-07-29T13:49:59;5.87;;;3.10;;
19251;SDS011;9760;50.944;5.304;2023-07-29T13:52:25;7.47;;;3.10;;
19251;SDS011;9760;50.944;5.304;2023-07-29T13:54:51;6.03;;;3.43;;
19251;SDS011;9760;50.944;5.304;2023-07-29T13:57:17;4.03;;;3.53;;
19251;SDS011;9760;50.944;5.304;2023-07-29T13:59:42;4.67;;;2.70;;
19251;SDS011;9760;50.944;5.304;2023-07-29T14:02:08;4.80;;;3.17;;
19251;SDS011;9760;50.944;5.304;2023-07-29T14:04:34;6.77;;;3.20;;
19251;SDS011;9760;50.944;5.304;2023-07-29T14:07:00;4.20;;;2.10;;
19251;SDS011;9760;50.944;5.304;2023-07-29T14:09:26;2.97;;;2.17;;
19251;SDS011;9760;50.944;5.304;2023-07-29T14:11:53;2.93;;;2.07;;
19251;SDS011;9760;50.944;5.304;2023-07-29T14:14:19;6.43;;;2.10;;
19251;SDS011;9760;50.944;5.304;2023-07-29T14:16:44;4.60;;;1.90;;
19251;SDS011;9760;50.944;5.304;2023-07-29T14:19:11;2.10;;;1.90;;
19251;SDS011;9760;50.944;5.304;2023-07-29T14:21:36;5.13;;;2.07;;
19251;SDS011;9760;50.944;5.304;2023-07-29T14:24:02;3.30;;;1.73;;
19251;SDS011;9760;50.944;5.304;2023-07-29T14:26:28;1.70;;;1.50;;
19251;SDS011;9760;50.944;5.304;2023-07-29T14:28:53;1.93;;;1.60;;
19251;SDS011;9760;50.944;5.304;2023-07-29T14:31:19;1.87;;;1.67;;
19251;SDS011;9760;50.944;5.304;2023-07-29T14:33:44;2.40;;;1.27;;
19251;SDS011;9760;50.944;5.304;2023-07-29T14:36:10;3.77;;;1.70;;
19251;SDS011;9760;50.944;5.304;2023-07-29T14:38:36;2.77;;;1.27;;
19251;SDS011;9760;50.944;5.304;2023-07-29T14:41:02;2.30;;;1.23;;
19251;SDS011;9760;50.944;5.304;2023-07-29T14:43:28;1.30;;;1.20;;
19251;SDS011;9760;50.944;5.304;2023-07-29T14:45:55;1.33;;;1.23;;
19251;SDS011;9760;50.944;5.304;2023-07-29T14:48:21;2.23;;;1.27;;
19251;SDS011;9760;50.944;5.304;2023-07-29T14:50:47;5.07;;;1.40;;
19251;SDS011;9760;50.944;5.304;2023-07-29T14:53:13;2.20;;;1.10;;
19251;SDS011;9760;50.944;5.304;2023-07-29T14:55:38;1.27;;;1.03;;
19251;SDS011;9760;50.944;5.304;2023-07-29T14:58:04;1.60;;;1.00;;
19251;SDS011;9760;50.944;5.304;2023-07-29T15:00:30;1.10;;;1.00;;
19251;SDS011;9760;50.944;5.304;2023-07-29T15:02:55;1.10;;;1.00;;
19251;SDS011;9760;50.944;5.304;2023-07-29T15:05:21;1.37;;;1.23;;
19251;SDS011;9760;50.944;5.304;2023-07-29T15:07:47;1.30;;;1.20;;
19251;SDS011;9760;50.944;5.304;2023-07-29T15:10:16;6.80;;;1.50;;
19251;SDS011;9760;50.944;5.304;2023-07-29T15:12:42;6.67;;;1.90;;
19251;SDS011;9760;50.944;5.304;2023-07-29T15:15:09;4.37;;;1.70;;
19251;SDS011;9760;50.944;5.304;2023-07-29T15:17:36;3.87;;;1.70;;
19251;SDS011;9760;50.944;5.304;2023-07-29T15:20:02;2.50;;;1.53;;
19251;SDS011;9760;50.944;5.304;2023-07-29T15:22:28;4.53;;;1.67;;